sensor_id;sensor_type;location;lat;lon;timestamp;temperature;humidity
43227;DHT22;28839;52.404;9.808;2023-07-31T00:05:17;15.50;99.90
43227;DHT22;28839;52.404;9.808;2023-07-31T00:12:13;15.70;99.90
43227;DHT22;28839;52.404;9.808;2023-07-31T00:19:06;15.70;99.90
43227;DHT22;28839;52.404;9.808;2023-07-31T00:26:00;15.70;99.90
43227;DHT22;28839;52.404;9.808;2023-07-31T00:32:55;15.60;99.90
43227;DHT22;28839;52.404;9.808;2023-07-31T00:39:49;15.70;99.90
43227;DHT22;28839;52.404;9.808;2023-07-31T00:46:44;15.70;99.90
43227;DHT22;28839;52.404;9.808;2023-07-31T00:53:40;15.80;99.90
43227;DHT22;28839;52.404;9.808;2023-07-31T01:00:34;15.70;99.90
43227;DHT22;28839;52.404;9.808;2023-07-31T01:07:33;15.60;99.90
43227;DHT22;28839;52.404;9.808;2023-07-31T01:14:30;15.60;99.90
43227;DHT22;28839;52.404;9.808;2023-07-31T01:21:36;15.60;99.90
43227;DHT22;28839;52.404;9.808;2023-07-31T01:28:46;15.60;99.90
43227;DHT22;28839;52.404;9.808;2023-07-31T01:35:44;15.60;99.90
43227;DHT22;28839;52.404;9.808;2023-07-31T01:42:38;15.70;99.90
43227;DHT22;28839;52.404;9.808;2023-07-31T01:49:33;15.60;99.90
43227;DHT22;28839;52.404;9.808;2023-07-31T01:56:27;15.60;99.90
43227;DHT22;28839;52.404;9.808;2023-07-31T02:03:21;15.70;99.90
43227;DHT22;28839;52.404;9.808;2023-07-31T02:10:16;15.60;99.90
43227;DHT22;28839;52.404;9.808;2023-07-31T02:17:10;15.60;99.90
43227;DHT22;28839;52.404;9.808;2023-07-31T02:24:04;15.60;99.90
43227;DHT22;28839;52.404;9.808;2023-07-31T02:30:59;15.60;99.90
43227;DHT22;28839;52.404;9.808;2023-07-31T02:37:53;15.70;99.90
43227;DHT22;28839;52.404;9.808;2023-07-31T02:44:47;15.70;99.90
43227;DHT22;28839;52.404;9.808;2023-07-31T02:51:43;15.60;99.90
43227;DHT22;28839;52.404;9.808;2023-07-31T02:58:37;15.60;99.90
43227;DHT22;28839;52.404;9.808;2023-07-31T03:05:31;15.60;99.90
43227;DHT22;28839;52.404;9.808;2023-07-31T03:12:27;15.60;99.90
43227;DHT22;28839;52.404;9.808;2023-07-31T03:19:21;15.60;99.90
43227;DHT22;28839;52.404;9.808;2023-07-31T03:26:15;15.60;99.90
43227;DHT22;28839;52.404;9.808;2023-07-31T03:33:10;15.60;99.90
43227;DHT22;28839;52.404;9.808;2023-07-31T03:40:04;15.60;99.90
43227;DHT22;28839;52.404;9.808;2023-07-31T03:46:58;15.60;99.90
43227;DHT22;28839;52.404;9.808;2023-07-31T03:53:53;15.60;99.90
43227;DHT22;28839;52.404;9.808;2023-07-31T04:00:47;15.50;99.90
43227;DHT22;28839;52.404;9.808;2023-07-31T04:07:41;15.60;99.90
43227;DHT22;28839;52.404;9.808;2023-07-31T04:14:36;15.60;99.90
43227;DHT22;28839;52.404;9.808;2023-07-31T04:21:30;15.60;99.90
43227;DHT22;28839;52.404;9.808;2023-07-31T04:28:24;15.50;99.90
43227;DHT22;28839;52.404;9.808;2023-07-31T04:35:20;15.50;99.90
43227;DHT22;28839;52.404;9.808;2023-07-31T04:42:13;15.50;99.90
43227;DHT22;28839;52.404;9.808;2023-07-31T04:49:07;15.60;99.90
43227;DHT22;28839;52.404;9.808;2023-07-31T04:56:03;15.40;99.90
43227;DHT22;28839;52.404;9.808;2023-07-31T05:02:57;15.40;99.90
43227;DHT22;28839;52.404;9.808;2023-07-31T05:09:51;15.40;99.90
43227;DHT22;28839;52.404;9.808;2023-07-31T05:16:46;15.40;99.90
43227;DHT22;28839;52.404;9.808;2023-07-31T05:23:40;15.40;99.90
43227;DHT22;28839;52.404;9.808;2023-07-31T05:30:34;15.30;99.90
43227;DHT22;28839;52.404;9.808;2023-07-31T05:37:29;15.20;99.90
43227;DHT22;28839;52.404;9.808;2023-07-31T05:44:22;15.30;99.90
43227;DHT22;28839;52.404;9.808;2023-07-31T05:51:16;15.30;99.90
43227;DHT22;28839;52.404;9.808;2023-07-31T05:58:11;15.40;99.90
43227;DHT22;28839;52.404;9.808;2023-07-31T06:05:06;15.40;99.90
43227;DHT22;28839;52.404;9.808;2023-07-31T06:12:00;15.40;99.90
43227;DHT22;28839;52.404;9.808;2023-07-31T06:18:55;15.50;99.90
43227;DHT22;28839;52.404;9.808;2023-07-31T06:25:48;15.60;99.90
43227;DHT22;28839;52.404;9.808;2023-07-31T06:32:42;15.70;99.90
43227;DHT22;28839;52.404;9.808;2023-07-31T06:39:37;15.70;99.90
43227;DHT22;28839;52.404;9.808;2023-07-31T06:46:31;15.80;99.90
43227;DHT22;28839;52.404;9.808;2023-07-31T06:53:25;15.80;99.90
43227;DHT22;28839;52.404;9.808;2023-07-31T07:00:21;15.80;99.90
43227;DHT22;28839;52.404;9.808;2023-07-31T07:07:15;15.80;99.90
43227;DHT22;28839;52.404;9.808;2023-07-31T07:14:09;15.80;99.90
43227;DHT22;28839;52.404;9.808;2023-07-31T07:21:05;15.80;99.90
43227;DHT22;28839;52.404;9.808;2023-07-31T07:27:58;15.80;99.90
43227;DHT22;28839;52.404;9.808;2023-07-31T07:34:52;15.90;99.90
43227;DHT22;28839;52.404;9.808;2023-07-31T07:41:47;16.00;99.90
43227;DHT22;28839;52.404;9.808;2023-07-31T07:48:41;16.30;99.90
43227;DHT22;28839;52.404;9.808;2023-07-31T07:55:35;16.60;99.90
43227;DHT22;28839;52.404;9.808;2023-07-31T08:02:30;16.60;99.90
43227;DHT22;28839;52.404;9.808;2023-07-31T08:09:24;16.90;99.90
43227;DHT22;28839;52.404;9.808;2023-07-31T08:16:18;17.10;99.90
43227;DHT22;28839;52.404;9.808;2023-07-31T08:23:13;16.80;99.90
43227;DHT22;28839;52.404;9.808;2023-07-31T08:30:08;16.80;99.90
43227;DHT22;28839;52.404;9.808;2023-07-31T08:37:02;16.80;99.90
43227;DHT22;28839;52.404;9.808;2023-07-31T08:43:58;16.70;99.90
43227;DHT22;28839;52.404;9.808;2023-07-31T08:50:53;16.90;99.90
43227;DHT22;28839;52.404;9.808;2023-07-31T08:57:47;16.90;99.90
43227;DHT22;28839;52.404;9.808;2023-07-31T09:04:42;17.00;99.90
43227;DHT22;28839;52.404;9.808;2023-07-31T09:11:36;17.10;99.90
43227;DHT22;28839;52.404;9.808;2023-07-31T09:18:30;17.00;99.90
43227;DHT22;28839;52.404;9.808;2023-07-31T09:25:26;17.00;99.90
43227;DHT22;28839;52.404;9.808;2023-07-31T09:32:20;17.20;99.90
43227;DHT22;28839;52.404;9.808;2023-07-31T09:39:15;17.40;99.90
43227;DHT22;28839;52.404;9.808;2023-07-31T09:46:14;17.20;99.90
43227;DHT22;28839;52.404;9.808;2023-07-31T09:53:08;17.20;99.90
43227;DHT22;28839;52.404;9.808;2023-07-31T10:00:03;17.20;99.90
43227;DHT22;28839;52.404;9.808;2023-07-31T10:06:59;17.10;99.90
43227;DHT22;28839;52.404;9.808;2023-07-31T10:13:58;17.10;99.90
43227;DHT22;28839;52.404;9.808;2023-07-31T10:20:53;17.20;99.90
43227;DHT22;28839;52.404;9.808;2023-07-31T10:27:49;17.30;99.90
43227;DHT22;28839;52.404;9.808;2023-07-31T10:34:45;17.30;99.90
43227;DHT22;28839;52.404;9.808;2023-07-31T10:41:40;17.60;99.90
43227;DHT22;28839;52.404;9.808;2023-07-31T10:48:38;17.60;99.90
43227;DHT22;28839;52.404;9.808;2023-07-31T10:55:39;17.60;99.90
43227;DHT22;28839;52.404;9.808;2023-07-31T11:02:39;17.60;99.90
43227;DHT22;28839;52.404;9.808;2023-07-31T11:09:34;17.70;99.90
43227;DHT22;28839;52.404;9.808;2023-07-31T11:16:30;17.80;99.90
43227;DHT22;28839;52.404;9.808;2023-07-31T11:23:24;17.90;99.90
43227;DHT22;28839;52.404;9.808;2023-07-31T11:30:20;18.00;99.90
43227;DHT22;28839;52.404;9.808;2023-07-31T11:37:17;18.10;99.90
43227;DHT22;28839;52.404;9.808;2023-07-31T11:44:11;18.20;99.90
43227;DHT22;28839;52.404;9.808;2023-07-31T11:51:09;18.00;99.90
43227;DHT22;28839;52.404;9.808;2023-07-31T11:58:04;18.00;99.90
43227;DHT22;28839;52.404;9.808;2023-07-31T12:04:58;18.20;99.90
43227;DHT22;28839;52.404;9.808;2023-07-31T12:11:53;18.10;99.90
43227;DHT22;28839;52.404;9.808;2023-07-31T12:18:49;18.10;99.90
43227;DHT22;28839;52.404;9.808;2023-07-31T12:25:43;18.10;99.90
43227;DHT22;28839;52.404;9.808;2023-07-31T12:32:40;18.20;99.90
43227;DHT22;28839;52.404;9.808;2023-07-31T12:39:35;18.20;99.90
43227;DHT22;28839;52.404;9.808;2023-07-31T12:46:29;18.10;99.90
43227;DHT22;28839;52.404;9.808;2023-07-31T12:53:24;18.20;99.90
43227;DHT22;28839;52.404;9.808;2023-07-31T13:00:18;18.10;99.90
43227;DHT22;28839;52.404;9.808;2023-07-31T13:07:12;18.00;99.90
43227;DHT22;28839;52.404;9.808;2023-07-31T13:14:07;18.00;99.90
43227;DHT22;28839;52.404;9.808;2023-07-31T13:21:01;18.20;99.90
43227;DHT22;28839;52.404;9.808;2023-07-31T13:27:55;18.30;99.90
43227;DHT22;28839;52.404;9.808;2023-07-31T13:34:51;18.30;99.90
43227;DHT22;28839;52.404;9.808;2023-07-31T13:41:45;18.50;99.90
43227;DHT22;28839;52.404;9.808;2023-07-31T13:48:38;18.60;99.90
43227;DHT22;28839;52.404;9.808;2023-07-31T13:55:34;18.80;99.90
43227;DHT22;28839;52.404;9.808;2023-07-31T14:02:27;19.20;99.90
43227;DHT22;28839;52.404;9.808;2023-07-31T14:09:21;19.10;99.90
43227;DHT22;28839;52.404;9.808;2023-07-31T14:16:16;19.10;99.90
43227;DHT22;28839;52.404;9.808;2023-07-31T14:23:10;19.10;99.90
43227;DHT22;28839;52.404;9.808;2023-07-31T14:30:05;19.10;99.90
43227;DHT22;28839;52.404;9.808;2023-07-31T14:37:01;19.50;99.90
43227;DHT22;28839;52.404;9.808;2023-07-31T14:43:54;19.30;99.90
43227;DHT22;28839;52.404;9.808;2023-07-31T14:50:48;19.10;99.90
43227;DHT22;28839;52.404;9.808;2023-07-31T14:57:43;19.20;99.90
43227;DHT22;28839;52.404;9.808;2023-07-31T15:04:37;19.00;99.90
43227;DHT22;28839;52.404;9.808;2023-07-31T15:11:31;19.00;99.90
43227;DHT22;28839;52.404;9.808;2023-07-31T15:18:26;19.20;99.90
43227;DHT22;28839;52.404;9.808;2023-07-31T15:25:20;19.70;99.90
43227;DHT22;28839;52.404;9.808;2023-07-31T15:32:14;19.80;99.90
43227;DHT22;28839;52.404;9.808;2023-07-31T15:39:09;19.70;99.90
43227;DHT22;28839;52.404;9.808;2023-07-31T15:46:03;19.60;99.90
43227;DHT22;28839;52.404;9.808;2023-07-31T15:52:57;19.50;99.90
43227;DHT22;28839;52.404;9.808;2023-07-31T15:59:52;19.40;99.90
43227;DHT22;28839;52.404;9.808;2023-07-31T16:06:46;19.40;99.90
43227;DHT22;28839;52.404;9.808;2023-07-31T16:13:39;19.50;99.90
43227;DHT22;28839;52.404;9.808;2023-07-31T16:20:35;19.50;99.90
43227;DHT22;28839;52.404;9.808;2023-07-31T16:27:29;19.60;99.90
43227;DHT22;28839;52.404;9.808;2023-07-31T16:34:22;19.70;99.90
43227;DHT22;28839;52.404;9.808;2023-07-31T16:41:18;19.60;99.90
43227;DHT22;28839;52.404;9.808;2023-07-31T16:48:12;19.50;99.90
43227;DHT22;28839;52.404;9.808;2023-07-31T16:55:06;19.40;99.90
43227;DHT22;28839;52.404;9.808;2023-07-31T17:02:02;19.30;99.90
43227;DHT22;28839;52.404;9.808;2023-07-31T17:08:56;19.30;99.90
43227;DHT22;28839;52.404;9.808;2023-07-31T17:15:50;19.30;99.90
43227;DHT22;28839;52.404;9.808;2023-07-31T17:22:45;19.30;99.90
43227;DHT22;28839;52.404;9.808;2023-07-31T17:29:40;19.20;99.90
43227;DHT22;28839;52.404;9.808;2023-07-31T17:36:33;19.20;99.90
43227;DHT22;28839;52.404;9.808;2023-07-31T17:43:29;19.20;99.90
43227;DHT22;28839;52.404;9.808;2023-07-31T17:50:23;19.10;99.90
43227;DHT22;28839;52.404;9.808;2023-07-31T17:57:16;19.10;99.90
43227;DHT22;28839;52.404;9.808;2023-07-31T18:04:12;19.10;99.90
43227;DHT22;28839;52.404;9.808;2023-07-31T18:11:07;19.00;99.90
43227;DHT22;28839;52.404;9.808;2023-07-31T18:18:01;19.00;99.90
43227;DHT22;28839;52.404;9.808;2023-07-31T18:24:56;18.90;99.90
43227;DHT22;28839;52.404;9.808;2023-07-31T18:31:50;18.90;99.90
43227;DHT22;28839;52.404;9.808;2023-07-31T18:38:44;18.90;99.90
43227;DHT22;28839;52.404;9.808;2023-07-31T18:45:39;18.90;99.90
43227;DHT22;28839;52.404;9.808;2023-07-31T18:52:33;18.90;99.90
43227;DHT22;28839;52.404;9.808;2023-07-31T18:59:27;18.80;99.90
43227;DHT22;28839;52.404;9.808;2023-07-31T19:06:22;18.60;99.90
43227;DHT22;28839;52.404;9.808;2023-07-31T19:13:16;18.50;99.90
43227;DHT22;28839;52.404;9.808;2023-07-31T19:20:11;18.40;99.90
43227;DHT22;28839;52.404;9.808;2023-07-31T19:27:06;18.20;99.90
43227;DHT22;28839;52.404;9.808;2023-07-31T19:34:00;18.20;99.90
43227;DHT22;28839;52.404;9.808;2023-07-31T19:40:54;18.00;99.90
43227;DHT22;28839;52.404;9.808;2023-07-31T19:47:49;17.90;99.90
43227;DHT22;28839;52.404;9.808;2023-07-31T19:54:43;17.60;99.90
43227;DHT22;28839;52.404;9.808;2023-07-31T20:01:37;17.50;99.90
43227;DHT22;28839;52.404;9.808;2023-07-31T20:08:32;17.40;99.90
43227;DHT22;28839;52.404;9.808;2023-07-31T20:15:26;17.50;99.90
43227;DHT22;28839;52.404;9.808;2023-07-31T20:22:20;17.40;99.90
43227;DHT22;28839;52.404;9.808;2023-07-31T20:29:15;17.30;99.90
43227;DHT22;28839;52.404;9.808;2023-07-31T20:36:09;17.30;99.90
43227;DHT22;28839;52.404;9.808;2023-07-31T20:43:03;17.30;99.90
43227;DHT22;28839;52.404;9.808;2023-07-31T20:49:58;17.30;99.90
43227;DHT22;28839;52.404;9.808;2023-07-31T20:56:52;17.20;99.90
43227;DHT22;28839;52.404;9.808;2023-07-31T21:03:46;17.20;99.90
43227;DHT22;28839;52.404;9.808;2023-07-31T21:10:41;17.10;99.90
43227;DHT22;28839;52.404;9.808;2023-07-31T21:17:35;17.00;99.90
43227;DHT22;28839;52.404;9.808;2023-07-31T21:24:29;16.90;99.90
43227;DHT22;28839;52.404;9.808;2023-07-31T21:31:24;16.90;99.90
43227;DHT22;28839;52.404;9.808;2023-07-31T21:38:18;16.90;99.90
43227;DHT22;28839;52.404;9.808;2023-07-31T21:45:12;16.90;99.90
43227;DHT22;28839;52.404;9.808;2023-07-31T21:52:07;16.80;99.90
43227;DHT22;28839;52.404;9.808;2023-07-31T21:59:01;16.80;99.90
43227;DHT22;28839;52.404;9.808;2023-07-31T22:05:55;16.80;99.90
43227;DHT22;28839;52.404;9.808;2023-07-31T22:12:50;16.70;99.90
43227;DHT22;28839;52.404;9.808;2023-07-31T22:19:44;16.70;99.90
43227;DHT22;28839;52.404;9.808;2023-07-31T22:26:38;16.70;99.90
43227;DHT22;28839;52.404;9.808;2023-07-31T22:33:36;16.60;99.90
43227;DHT22;28839;52.404;9.808;2023-07-31T22:40:29;16.60;99.90
43227;DHT22;28839;52.404;9.808;2023-07-31T22:47:23;16.60;99.90
43227;DHT22;28839;52.404;9.808;2023-07-31T22:54:18;16.60;99.90
43227;DHT22;28839;52.404;9.808;2023-07-31T23:01:15;16.60;99.90
43227;DHT22;28839;52.404;9.808;2023-07-31T23:08:09;16.60;99.90
43227;DHT22;28839;52.404;9.808;2023-07-31T23:15:06;16.60;99.90
43227;DHT22;28839;52.404;9.808;2023-07-31T23:22:00;16.60;99.90
43227;DHT22;28839;52.404;9.808;2023-07-31T23:28:54;16.60;99.90
43227;DHT22;28839;52.404;9.808;2023-07-31T23:35:50;16.60;99.90
43227;DHT22;28839;52.404;9.808;2023-07-31T23:42:44;16.40;99.90
43227;DHT22;28839;52.404;9.808;2023-07-31T23:49:38;16.50;99.90
43227;DHT22;28839;52.404;9.808;2023-07-31T23:56:33;16.50;99.90
